< < Back
Terminal Aerodrome Forecast


Current Version              Previous Versions:   1  2  3  4  5  6  7  8  9  

Terminal Aerodrome Forecast

235
FTUS42 KCAE 051738
TAFCAE
TAF
KCAE 051738Z 0518/0618 23008KT P6SM SCT040 SCT120
     FM052000 22012G20KT P6SM VCSH SCT040 BKN120
     FM060000 21008KT P6SM VCSH SCT040 BKN100
     FM060200 VRB03KT P6SM BKN250
     FM061400 24007KT P6SM SCT250=

Latest METAR

401
SAUS80 KWBC 061100
MTRCAE
METAR KCAE 061056Z 23005KT 6SM BR OVC006 23/21 A3011 RMK AO2 SLP192
T02330211


USA.gov is the U.S. government's official web portal to all federal, state and local government web resources and services.